sensor_id;sensor_type;location;lat;lon;timestamp;temperature;humidity
21772;DHT22;11047;47.904;8.110;2022-07-01T00:00:52;13.80;99.90
21772;DHT22;11047;47.904;8.110;2022-07-01T00:03:19;13.80;99.90
21772;DHT22;11047;47.904;8.110;2022-07-01T00:05:46;13.70;99.90
21772;DHT22;11047;47.904;8.110;2022-07-01T00:08:13;13.70;99.90
21772;DHT22;11047;47.904;8.110;2022-07-01T00:10:40;13.70;99.90
21772;DHT22;11047;47.904;8.110;2022-07-01T00:13:06;13.70;99.90
21772;DHT22;11047;47.904;8.110;2022-07-01T00:15:33;13.70;99.90
21772;DHT22;11047;47.904;8.110;2022-07-01T00:18:02;13.70;99.90
21772;DHT22;11047;47.904;8.110;2022-07-01T00:20:29;13.80;99.90
21772;DHT22;11047;47.904;8.110;2022-07-01T00:22:56;13.70;99.90
21772;DHT22;11047;47.904;8.110;2022-07-01T00:25:23;13.70;99.90
21772;DHT22;11047;47.904;8.110;2022-07-01T00:27:50;13.80;99.90
21772;DHT22;11047;47.904;8.110;2022-07-01T00:30:17;13.70;99.90
21772;DHT22;11047;47.904;8.110;2022-07-01T00:32:44;13.70;99.90
21772;DHT22;11047;47.904;8.110;2022-07-01T00:35:13;13.70;99.90
21772;DHT22;11047;47.904;8.110;2022-07-01T00:37:40;13.60;99.90
21772;DHT22;11047;47.904;8.110;2022-07-01T00:40:08;13.60;99.90
21772;DHT22;11047;47.904;8.110;2022-07-01T00:42:38;13.60;99.90
21772;DHT22;11047;47.904;8.110;2022-07-01T00:45:07;13.60;99.90
21772;DHT22;11047;47.904;8.110;2022-07-01T00:47:35;13.60;99.90
21772;DHT22;11047;47.904;8.110;2022-07-01T00:50:05;13.60;99.90
21772;DHT22;11047;47.904;8.110;2022-07-01T00:52:34;13.60;99.90
21772;DHT22;11047;47.904;8.110;2022-07-01T00:55:03;13.60;99.90
21772;DHT22;11047;47.904;8.110;2022-07-01T00:57:31;13.60;99.90
21772;DHT22;11047;47.904;8.110;2022-07-01T00:59:58;13.60;99.90
21772;DHT22;11047;47.904;8.110;2022-07-01T01:02:25;13.60;99.90
21772;DHT22;11047;47.904;8.110;2022-07-01T01:04:52;13.60;99.90
21772;DHT22;11047;47.904;8.110;2022-07-01T01:07:19;13.50;99.90
21772;DHT22;11047;47.904;8.110;2022-07-01T01:09:47;13.50;99.90
21772;DHT22;11047;47.904;8.110;2022-07-01T01:12:14;13.40;99.90
21772;DHT22;11047;47.904;8.110;2022-07-01T01:14:44;13.40;99.90
21772;DHT22;11047;47.904;8.110;2022-07-01T01:17:12;13.40;99.90
21772;DHT22;11047;47.904;8.110;2022-07-01T01:19:39;13.30;99.90
21772;DHT22;11047;47.904;8.110;2022-07-01T01:22:07;13.20;99.90
21772;DHT22;11047;47.904;8.110;2022-07-01T01:24:35;13.20;99.90
21772;DHT22;11047;47.904;8.110;2022-07-01T01:27:03;13.30;99.90
21772;DHT22;11047;47.904;8.110;2022-07-01T01:29:30;13.20;99.90
21772;DHT22;11047;47.904;8.110;2022-07-01T01:31:57;13.20;99.90
21772;DHT22;11047;47.904;8.110;2022-07-01T01:34:24;13.10;99.90
21772;DHT22;11047;47.904;8.110;2022-07-01T01:36:51;13.00;99.90
21772;DHT22;11047;47.904;8.110;2022-07-01T01:39:20;13.10;99.90
21772;DHT22;11047;47.904;8.110;2022-07-01T01:41:47;12.90;99.90
21772;DHT22;11047;47.904;8.110;2022-07-01T01:44:14;12.90;99.90
21772;DHT22;11047;47.904;8.110;2022-07-01T01:46:41;12.90;99.90
21772;DHT22;11047;47.904;8.110;2022-07-01T01:49:08;12.80;99.90
21772;DHT22;11047;47.904;8.110;2022-07-01T01:51:36;12.70;99.90
21772;DHT22;11047;47.904;8.110;2022-07-01T01:54:03;12.60;99.90
21772;DHT22;11047;47.904;8.110;2022-07-01T01:56:32;12.60;99.90
21772;DHT22;11047;47.904;8.110;2022-07-01T01:58:59;12.60;99.90
21772;DHT22;11047;47.904;8.110;2022-07-01T02:01:26;12.70;99.90
21772;DHT22;11047;47.904;8.110;2022-07-01T02:03:53;12.70;99.90
21772;DHT22;11047;47.904;8.110;2022-07-01T02:06:21;12.70;99.90
21772;DHT22;11047;47.904;8.110;2022-07-01T02:08:48;12.50;99.90
21772;DHT22;11047;47.904;8.110;2022-07-01T02:11:14;12.40;99.90
21772;DHT22;11047;47.904;8.110;2022-07-01T02:13:43;12.30;99.90
21772;DHT22;11047;47.904;8.110;2022-07-01T02:16:11;12.30;99.90
21772;DHT22;11047;47.904;8.110;2022-07-01T02:18:38;12.30;99.90
21772;DHT22;11047;47.904;8.110;2022-07-01T02:21:05;12.30;99.90
21772;DHT22;11047;47.904;8.110;2022-07-01T02:23:32;12.30;99.90
21772;DHT22;11047;47.904;8.110;2022-07-01T02:25:59;12.30;99.90
21772;DHT22;11047;47.904;8.110;2022-07-01T02:28:26;12.30;99.90
21772;DHT22;11047;47.904;8.110;2022-07-01T02:30:54;12.40;99.90
21772;DHT22;11047;47.904;8.110;2022-07-01T02:33:21;12.30;99.90
21772;DHT22;11047;47.904;8.110;2022-07-01T02:35:48;12.30;99.90
21772;DHT22;11047;47.904;8.110;2022-07-01T02:38:15;12.10;99.90
21772;DHT22;11047;47.904;8.110;2022-07-01T02:40:42;12.10;99.90
21772;DHT22;11047;47.904;8.110;2022-07-01T02:43:09;12.10;99.90
21772;DHT22;11047;47.904;8.110;2022-07-01T02:45:36;12.00;99.90
21772;DHT22;11047;47.904;8.110;2022-07-01T02:48:05;12.00;99.90
21772;DHT22;11047;47.904;8.110;2022-07-01T02:50:32;12.00;99.90
21772;DHT22;11047;47.904;8.110;2022-07-01T02:52:59;12.10;99.90
21772;DHT22;11047;47.904;8.110;2022-07-01T02:55:26;12.10;99.90
21772;DHT22;11047;47.904;8.110;2022-07-01T02:57:54;12.20;99.90
21772;DHT22;11047;47.904;8.110;2022-07-01T03:00:22;12.10;99.90
21772;DHT22;11047;47.904;8.110;2022-07-01T03:02:49;12.10;99.90
21772;DHT22;11047;47.904;8.110;2022-07-01T03:05:17;12.10;99.90
21772;DHT22;11047;47.904;8.110;2022-07-01T03:07:44;12.20;99.90
21772;DHT22;11047;47.904;8.110;2022-07-01T03:10:11;12.20;99.90
21772;DHT22;11047;47.904;8.110;2022-07-01T03:12:38;12.20;99.90
21772;DHT22;11047;47.904;8.110;2022-07-01T03:15:07;12.20;99.90
21772;DHT22;11047;47.904;8.110;2022-07-01T03:17:36;12.20;99.90
21772;DHT22;11047;47.904;8.110;2022-07-01T03:20:05;12.20;99.90
21772;DHT22;11047;47.904;8.110;2022-07-01T03:22:34;12.30;99.90
21772;DHT22;11047;47.904;8.110;2022-07-01T03:25:01;12.30;99.90
21772;DHT22;11047;47.904;8.110;2022-07-01T03:27:30;12.40;99.90
21772;DHT22;11047;47.904;8.110;2022-07-01T03:29:57;12.40;99.90
21772;DHT22;11047;47.904;8.110;2022-07-01T03:32:25;12.40;99.90
21772;DHT22;11047;47.904;8.110;2022-07-01T03:34:53;12.40;99.90
21772;DHT22;11047;47.904;8.110;2022-07-01T03:37:21;12.30;99.90
21772;DHT22;11047;47.904;8.110;2022-07-01T03:39:50;12.30;99.90
21772;DHT22;11047;47.904;8.110;2022-07-01T03:42:19;12.40;99.90
21772;DHT22;11047;47.904;8.110;2022-07-01T03:44:46;12.40;99.90
21772;DHT22;11047;47.904;8.110;2022-07-01T03:47:13;12.40;99.90
21772;DHT22;11047;47.904;8.110;2022-07-01T03:49:40;12.40;99.90
21772;DHT22;11047;47.904;8.110;2022-07-01T03:52:06;12.50;99.90
21772;DHT22;11047;47.904;8.110;2022-07-01T03:54:33;12.50;99.90
21772;DHT22;11047;47.904;8.110;2022-07-01T03:57:07;12.50;99.90
21772;DHT22;11047;47.904;8.110;2022-07-01T03:59:35;12.50;99.90
21772;DHT22;11047;47.904;8.110;2022-07-01T04:02:03;12.40;99.90
21772;DHT22;11047;47.904;8.110;2022-07-01T04:04:30;12.30;99.90
21772;DHT22;11047;47.904;8.110;2022-07-01T04:06:59;12.30;99.90
21772;DHT22;11047;47.904;8.110;2022-07-01T04:09:27;12.20;99.90
21772;DHT22;11047;47.904;8.110;2022-07-01T04:11:55;12.10;99.90
21772;DHT22;11047;47.904;8.110;2022-07-01T04:14:23;12.00;99.90
21772;DHT22;11047;47.904;8.110;2022-07-01T04:16:50;12.00;99.90
21772;DHT22;11047;47.904;8.110;2022-07-01T04:19:19;12.00;99.90
21772;DHT22;11047;47.904;8.110;2022-07-01T04:21:46;11.90;99.90
21772;DHT22;11047;47.904;8.110;2022-07-01T04:24:30;12.00;99.90
21772;DHT22;11047;47.904;8.110;2022-07-01T04:27:00;12.00;99.90
21772;DHT22;11047;47.904;8.110;2022-07-01T04:29:28;12.00;99.90
21772;DHT22;11047;47.904;8.110;2022-07-01T04:31:56;12.00;99.90
21772;DHT22;11047;47.904;8.110;2022-07-01T04:34:23;12.10;99.90
21772;DHT22;11047;47.904;8.110;2022-07-01T04:36:50;12.00;99.90
21772;DHT22;11047;47.904;8.110;2022-07-01T04:39:17;12.10;99.90
21772;DHT22;11047;47.904;8.110;2022-07-01T04:41:44;12.10;99.90
21772;DHT22;11047;47.904;8.110;2022-07-01T04:44:25;12.10;99.90
21772;DHT22;11047;47.904;8.110;2022-07-01T04:46:54;12.00;99.90
21772;DHT22;11047;47.904;8.110;2022-07-01T04:49:21;12.10;99.90
21772;DHT22;11047;47.904;8.110;2022-07-01T04:51:48;12.00;99.90
21772;DHT22;11047;47.904;8.110;2022-07-01T04:54:15;12.10;99.90
21772;DHT22;11047;47.904;8.110;2022-07-01T04:56:42;12.00;99.90
21772;DHT22;11047;47.904;8.110;2022-07-01T04:59:09;12.00;99.90
21772;DHT22;11047;47.904;8.110;2022-07-01T05:01:36;12.10;99.90
21772;DHT22;11047;47.904;8.110;2022-07-01T05:04:05;12.10;99.90
21772;DHT22;11047;47.904;8.110;2022-07-01T05:06:32;12.00;99.90
21772;DHT22;11047;47.904;8.110;2022-07-01T05:08:59;11.90;99.90
21772;DHT22;11047;47.904;8.110;2022-07-01T05:11:26;12.00;99.90
21772;DHT22;11047;47.904;8.110;2022-07-01T05:13:53;12.00;99.90
21772;DHT22;11047;47.904;8.110;2022-07-01T05:16:20;12.00;99.90
21772;DHT22;11047;47.904;8.110;2022-07-01T05:18:47;12.00;99.90
21772;DHT22;11047;47.904;8.110;2022-07-01T05:21:33;11.80;99.90
21772;DHT22;11047;47.904;8.110;2022-07-01T05:24:17;11.70;99.90
21772;DHT22;11047;47.904;8.110;2022-07-01T05:26:44;11.80;99.90
21772;DHT22;11047;47.904;8.110;2022-07-01T05:29:11;11.80;99.90
21772;DHT22;11047;47.904;8.110;2022-07-01T05:31:38;11.90;99.90
21772;DHT22;11047;47.904;8.110;2022-07-01T05:34:05;11.90;99.90
21772;DHT22;11047;47.904;8.110;2022-07-01T05:36:34;11.80;99.90
21772;DHT22;11047;47.904;8.110;2022-07-01T05:39:01;11.80;99.90
21772;DHT22;11047;47.904;8.110;2022-07-01T05:41:28;11.80;99.90
21772;DHT22;11047;47.904;8.110;2022-07-01T05:43:55;11.70;99.90
21772;DHT22;11047;47.904;8.110;2022-07-01T05:46:22;11.70;99.90
21772;DHT22;11047;47.904;8.110;2022-07-01T05:48:49;11.70;99.90
21772;DHT22;11047;47.904;8.110;2022-07-01T05:51:16;11.80;99.90
21772;DHT22;11047;47.904;8.110;2022-07-01T05:53:45;11.70;99.90
21772;DHT22;11047;47.904;8.110;2022-07-01T05:56:13;11.80;99.90
21772;DHT22;11047;47.904;8.110;2022-07-01T05:58:40;11.90;99.90
21772;DHT22;11047;47.904;8.110;2022-07-01T06:01:07;11.90;99.90
21772;DHT22;11047;47.904;8.110;2022-07-01T06:03:34;11.90;99.90
21772;DHT22;11047;47.904;8.110;2022-07-01T06:06:01;11.90;99.90
21772;DHT22;11047;47.904;8.110;2022-07-01T06:08:28;12.00;99.90
21772;DHT22;11047;47.904;8.110;2022-07-01T06:10:56;12.10;99.90
21772;DHT22;11047;47.904;8.110;2022-07-01T06:13:23;12.00;99.90
21772;DHT22;11047;47.904;8.110;2022-07-01T06:15:50;12.10;99.90
21772;DHT22;11047;47.904;8.110;2022-07-01T06:18:17;12.20;99.90
21772;DHT22;11047;47.904;8.110;2022-07-01T06:20:44;12.10;99.90
21772;DHT22;11047;47.904;8.110;2022-07-01T06:23:11;12.20;99.90
21772;DHT22;11047;47.904;8.110;2022-07-01T06:25:38;12.20;99.90
21772;DHT22;11047;47.904;8.110;2022-07-01T06:28:06;12.20;99.90
21772;DHT22;11047;47.904;8.110;2022-07-01T06:30:33;12.20;99.90
21772;DHT22;11047;47.904;8.110;2022-07-01T06:33:00;12.20;99.90
21772;DHT22;11047;47.904;8.110;2022-07-01T06:35:27;12.20;99.90
21772;DHT22;11047;47.904;8.110;2022-07-01T06:37:54;12.30;99.90
21772;DHT22;11047;47.904;8.110;2022-07-01T06:40:21;12.30;99.90
21772;DHT22;11047;47.904;8.110;2022-07-01T06:42:48;12.30;99.90
21772;DHT22;11047;47.904;8.110;2022-07-01T06:45:17;12.30;99.90
21772;DHT22;11047;47.904;8.110;2022-07-01T06:47:43;12.30;99.90
21772;DHT22;11047;47.904;8.110;2022-07-01T06:50:11;12.20;99.90
21772;DHT22;11047;47.904;8.110;2022-07-01T06:52:37;12.10;99.90
21772;DHT22;11047;47.904;8.110;2022-07-01T06:55:05;12.10;99.90
21772;DHT22;11047;47.904;8.110;2022-07-01T06:57:32;12.10;99.90
21772;DHT22;11047;47.904;8.110;2022-07-01T06:59:59;12.10;99.90
21772;DHT22;11047;47.904;8.110;2022-07-01T07:02:27;12.20;99.90
21772;DHT22;11047;47.904;8.110;2022-07-01T07:04:54;12.30;99.90
21772;DHT22;11047;47.904;8.110;2022-07-01T07:07:23;12.30;99.90
21772;DHT22;11047;47.904;8.110;2022-07-01T07:09:50;12.20;99.90
21772;DHT22;11047;47.904;8.110;2022-07-01T07:12:17;12.20;99.90
21772;DHT22;11047;47.904;8.110;2022-07-01T07:14:44;12.20;99.90
21772;DHT22;11047;47.904;8.110;2022-07-01T07:17:11;12.20;99.90
21772;DHT22;11047;47.904;8.110;2022-07-01T07:19:39;12.20;99.90
21772;DHT22;11047;47.904;8.110;2022-07-01T07:22:06;12.40;99.90
21772;DHT22;11047;47.904;8.110;2022-07-01T07:24:34;12.30;99.90
21772;DHT22;11047;47.904;8.110;2022-07-01T07:27:01;12.30;99.90
21772;DHT22;11047;47.904;8.110;2022-07-01T07:29:28;12.30;99.90
21772;DHT22;11047;47.904;8.110;2022-07-01T07:31:55;12.20;99.90
21772;DHT22;11047;47.904;8.110;2022-07-01T07:34:21;12.20;99.90
21772;DHT22;11047;47.904;8.110;2022-07-01T07:36:50;12.30;99.90
21772;DHT22;11047;47.904;8.110;2022-07-01T07:39:17;12.30;99.90
21772;DHT22;11047;47.904;8.110;2022-07-01T07:41:43;12.30;99.90
21772;DHT22;11047;47.904;8.110;2022-07-01T07:44:10;12.30;99.90
21772;DHT22;11047;47.904;8.110;2022-07-01T07:46:37;12.40;99.90
21772;DHT22;11047;47.904;8.110;2022-07-01T07:49:04;12.40;99.90
21772;DHT22;11047;47.904;8.110;2022-07-01T07:51:31;12.30;99.90
21772;DHT22;11047;47.904;8.110;2022-07-01T07:54:00;12.30;99.90
21772;DHT22;11047;47.904;8.110;2022-07-01T07:56:28;12.10;99.90
21772;DHT22;11047;47.904;8.110;2022-07-01T07:58:55;12.10;99.90
21772;DHT22;11047;47.904;8.110;2022-07-01T08:01:22;12.00;99.90
21772;DHT22;11047;47.904;8.110;2022-07-01T08:03:49;12.00;99.90
21772;DHT22;11047;47.904;8.110;2022-07-01T08:06:16;12.00;99.90
21772;DHT22;11047;47.904;8.110;2022-07-01T08:08:43;12.10;99.90
21772;DHT22;11047;47.904;8.110;2022-07-01T08:11:12;12.00;99.90
21772;DHT22;11047;47.904;8.110;2022-07-01T08:13:39;12.10;99.90
21772;DHT22;11047;47.904;8.110;2022-07-01T08:16:06;12.20;99.90
21772;DHT22;11047;47.904;8.110;2022-07-01T08:18:33;12.10;99.90
21772;DHT22;11047;47.904;8.110;2022-07-01T08:21:00;12.10;99.90
21772;DHT22;11047;47.904;8.110;2022-07-01T08:23:27;12.10;99.90
21772;DHT22;11047;47.904;8.110;2022-07-01T08:25:54;12.20;99.90
21772;DHT22;11047;47.904;8.110;2022-07-01T08:28:23;12.30;99.90
21772;DHT22;11047;47.904;8.110;2022-07-01T08:30:49;12.40;99.90
21772;DHT22;11047;47.904;8.110;2022-07-01T08:33:16;12.50;99.90
21772;DHT22;11047;47.904;8.110;2022-07-01T08:35:43;12.50;99.90
21772;DHT22;11047;47.904;8.110;2022-07-01T08:38:10;12.50;99.90
21772;DHT22;11047;47.904;8.110;2022-07-01T08:40:37;12.60;99.90
21772;DHT22;11047;47.904;8.110;2022-07-01T08:43:05;12.60;99.90
21772;DHT22;11047;47.904;8.110;2022-07-01T08:45:34;12.70;99.90
21772;DHT22;11047;47.904;8.110;2022-07-01T08:48:03;12.80;99.90
21772;DHT22;11047;47.904;8.110;2022-07-01T08:50:34;12.90;99.90
21772;DHT22;11047;47.904;8.110;2022-07-01T08:53:02;13.00;99.90
21772;DHT22;11047;47.904;8.110;2022-07-01T08:55:29;13.30;99.90
21772;DHT22;11047;47.904;8.110;2022-07-01T08:57:56;13.40;99.90
21772;DHT22;11047;47.904;8.110;2022-07-01T09:00:29;13.30;99.90
21772;DHT22;11047;47.904;8.110;2022-07-01T09:03:00;13.20;99.90
21772;DHT22;11047;47.904;8.110;2022-07-01T09:05:28;13.30;99.90
21772;DHT22;11047;47.904;8.110;2022-07-01T09:07:57;13.40;99.90
21772;DHT22;11047;47.904;8.110;2022-07-01T09:10:24;13.40;99.90
21772;DHT22;11047;47.904;8.110;2022-07-01T09:12:51;13.60;99.90
21772;DHT22;11047;47.904;8.110;2022-07-01T09:15:25;13.90;99.90
21772;DHT22;11047;47.904;8.110;2022-07-01T09:17:53;14.50;99.90
21772;DHT22;11047;47.904;8.110;2022-07-01T09:20:26;14.80;99.90
21772;DHT22;11047;47.904;8.110;2022-07-01T09:23:02;14.90;99.90
21772;DHT22;11047;47.904;8.110;2022-07-01T09:25:32;14.90;99.90
21772;DHT22;11047;47.904;8.110;2022-07-01T09:28:10;15.10;99.90
21772;DHT22;11047;47.904;8.110;2022-07-01T09:30:38;15.40;99.90
21772;DHT22;11047;47.904;8.110;2022-07-01T09:33:07;15.90;99.90
21772;DHT22;11047;47.904;8.110;2022-07-01T09:35:36;15.70;99.90
21772;DHT22;11047;47.904;8.110;2022-07-01T09:38:03;15.50;99.90
21772;DHT22;11047;47.904;8.110;2022-07-01T09:40:51;15.40;99.90
21772;DHT22;11047;47.904;8.110;2022-07-01T09:43:20;15.30;99.90
21772;DHT22;11047;47.904;8.110;2022-07-01T09:45:52;15.10;99.90
21772;DHT22;11047;47.904;8.110;2022-07-01T09:48:20;15.40;99.90
21772;DHT22;11047;47.904;8.110;2022-07-01T09:50:48;15.50;99.90
21772;DHT22;11047;47.904;8.110;2022-07-01T09:53:16;15.70;99.90
21772;DHT22;11047;47.904;8.110;2022-07-01T09:55:43;15.50;99.90
21772;DHT22;11047;47.904;8.110;2022-07-01T09:58:09;15.20;99.90
21772;DHT22;11047;47.904;8.110;2022-07-01T10:00:37;14.80;99.90
21772;DHT22;11047;47.904;8.110;2022-07-01T10:03:05;14.50;99.90
21772;DHT22;11047;47.904;8.110;2022-07-01T10:05:37;14.60;99.90
21772;DHT22;11047;47.904;8.110;2022-07-01T10:08:15;14.60;99.90
21772;DHT22;11047;47.904;8.110;2022-07-01T10:10:49;14.80;99.90
21772;DHT22;11047;47.904;8.110;2022-07-01T10:13:21;14.70;99.90
21772;DHT22;11047;47.904;8.110;2022-07-01T10:15:50;14.60;99.90
21772;DHT22;11047;47.904;8.110;2022-07-01T10:18:21;14.90;99.90
21772;DHT22;11047;47.904;8.110;2022-07-01T10:20:49;14.80;99.90
21772;DHT22;11047;47.904;8.110;2022-07-01T10:23:22;14.70;99.90
21772;DHT22;11047;47.904;8.110;2022-07-01T10:25:50;14.70;99.90
21772;DHT22;11047;47.904;8.110;2022-07-01T10:28:23;14.50;99.90
21772;DHT22;11047;47.904;8.110;2022-07-01T10:30:57;14.20;99.90
21772;DHT22;11047;47.904;8.110;2022-07-01T10:33:29;14.30;99.90
21772;DHT22;11047;47.904;8.110;2022-07-01T10:36:04;14.50;99.90
21772;DHT22;11047;47.904;8.110;2022-07-01T10:38:32;14.70;99.90
21772;DHT22;11047;47.904;8.110;2022-07-01T10:40:59;14.80;99.90
21772;DHT22;11047;47.904;8.110;2022-07-01T10:43:36;14.70;99.90
21772;DHT22;11047;47.904;8.110;2022-07-01T10:46:06;14.90;99.90
21772;DHT22;11047;47.904;8.110;2022-07-01T10:48:33;14.80;99.90
21772;DHT22;11047;47.904;8.110;2022-07-01T10:51:00;14.60;99.90
21772;DHT22;11047;47.904;8.110;2022-07-01T10:53:46;14.50;99.90
21772;DHT22;11047;47.904;8.110;2022-07-01T10:56:18;14.50;99.90
21772;DHT22;11047;47.904;8.110;2022-07-01T10:58:45;14.50;99.90
21772;DHT22;11047;47.904;8.110;2022-07-01T11:01:13;14.60;99.90
21772;DHT22;11047;47.904;8.110;2022-07-01T11:03:40;14.80;99.90
21772;DHT22;11047;47.904;8.110;2022-07-01T11:06:08;15.00;99.90
21772;DHT22;11047;47.904;8.110;2022-07-01T11:08:35;15.20;99.90
21772;DHT22;11047;47.904;8.110;2022-07-01T11:11:04;15.40;99.90
21772;DHT22;11047;47.904;8.110;2022-07-01T11:13:31;15.20;99.90
21772;DHT22;11047;47.904;8.110;2022-07-01T11:15:59;15.30;99.90
21772;DHT22;11047;47.904;8.110;2022-07-01T11:18:27;15.40;99.90
21772;DHT22;11047;47.904;8.110;2022-07-01T11:21:03;15.10;99.90
21772;DHT22;11047;47.904;8.110;2022-07-01T11:23:30;15.30;99.90
21772;DHT22;11047;47.904;8.110;2022-07-01T11:25:57;15.20;99.90
21772;DHT22;11047;47.904;8.110;2022-07-01T11:28:25;15.30;99.90
21772;DHT22;11047;47.904;8.110;2022-07-01T11:30:58;15.10;99.90
21772;DHT22;11047;47.904;8.110;2022-07-01T11:33:26;14.90;99.90
21772;DHT22;11047;47.904;8.110;2022-07-01T11:35:53;15.10;99.90
21772;DHT22;11047;47.904;8.110;2022-07-01T11:38:37;15.00;99.90
21772;DHT22;11047;47.904;8.110;2022-07-01T11:41:22;15.40;99.90
21772;DHT22;11047;47.904;8.110;2022-07-01T11:43:52;15.70;99.90
21772;DHT22;11047;47.904;8.110;2022-07-01T11:46:22;15.80;99.90
21772;DHT22;11047;47.904;8.110;2022-07-01T11:48:50;16.00;99.90
21772;DHT22;11047;47.904;8.110;2022-07-01T11:51:20;16.00;99.90
21772;DHT22;11047;47.904;8.110;2022-07-01T11:53:48;15.70;99.90
21772;DHT22;11047;47.904;8.110;2022-07-01T11:56:16;15.80;99.90
21772;DHT22;11047;47.904;8.110;2022-07-01T11:58:49;16.10;99.90
21772;DHT22;11047;47.904;8.110;2022-07-01T12:01:25;16.00;99.90
21772;DHT22;11047;47.904;8.110;2022-07-01T12:03:53;16.10;99.90
21772;DHT22;11047;47.904;8.110;2022-07-01T12:06:20;16.20;99.90
21772;DHT22;11047;47.904;8.110;2022-07-01T12:08:49;16.20;99.90
21772;DHT22;11047;47.904;8.110;2022-07-01T12:11:17;16.30;99.90
21772;DHT22;11047;47.904;8.110;2022-07-01T12:13:45;16.10;99.90
21772;DHT22;11047;47.904;8.110;2022-07-01T12:16:13;16.20;99.90
21772;DHT22;11047;47.904;8.110;2022-07-01T12:18:51;16.60;99.90
21772;DHT22;11047;47.904;8.110;2022-07-01T12:21:18;17.50;99.90
21772;DHT22;11047;47.904;8.110;2022-07-01T12:24:06;17.80;99.90
21772;DHT22;11047;47.904;8.110;2022-07-01T12:26:34;17.40;99.90
21772;DHT22;11047;47.904;8.110;2022-07-01T12:29:01;17.00;99.90
21772;DHT22;11047;47.904;8.110;2022-07-01T12:31:28;16.70;99.90
21772;DHT22;11047;47.904;8.110;2022-07-01T12:33:57;16.60;99.90
21772;DHT22;11047;47.904;8.110;2022-07-01T12:36:24;17.00;99.90
21772;DHT22;11047;47.904;8.110;2022-07-01T12:39:02;17.10;99.90
21772;DHT22;11047;47.904;8.110;2022-07-01T12:41:30;17.50;99.90
21772;DHT22;11047;47.904;8.110;2022-07-01T12:43:59;17.70;99.90
21772;DHT22;11047;47.904;8.110;2022-07-01T12:46:29;17.30;99.90
21772;DHT22;11047;47.904;8.110;2022-07-01T12:48:59;17.40;99.90
21772;DHT22;11047;47.904;8.110;2022-07-01T12:51:30;17.30;99.90
21772;DHT22;11047;47.904;8.110;2022-07-01T12:53:57;17.10;99.90
21772;DHT22;11047;47.904;8.110;2022-07-01T12:56:25;17.10;99.90
21772;DHT22;11047;47.904;8.110;2022-07-01T12:58:53;17.30;99.90
21772;DHT22;11047;47.904;8.110;2022-07-01T13:01:21;17.70;99.90
21772;DHT22;11047;47.904;8.110;2022-07-01T13:03:48;18.10;99.90
21772;DHT22;11047;47.904;8.110;2022-07-01T13:06:16;18.00;99.90
21772;DHT22;11047;47.904;8.110;2022-07-01T13:08:43;18.20;99.90
21772;DHT22;11047;47.904;8.110;2022-07-01T13:11:10;18.20;99.90
21772;DHT22;11047;47.904;8.110;2022-07-01T13:13:37;17.90;99.90
21772;DHT22;11047;47.904;8.110;2022-07-01T13:16:05;17.80;99.90
21772;DHT22;11047;47.904;8.110;2022-07-01T13:18:32;18.00;99.90
21772;DHT22;11047;47.904;8.110;2022-07-01T13:20:58;18.10;99.90
21772;DHT22;11047;47.904;8.110;2022-07-01T13:23:27;18.00;99.90
21772;DHT22;11047;47.904;8.110;2022-07-01T13:25:54;17.50;99.90
21772;DHT22;11047;47.904;8.110;2022-07-01T13:28:21;17.40;99.90
21772;DHT22;11047;47.904;8.110;2022-07-01T13:30:48;17.70;99.90
21772;DHT22;11047;47.904;8.110;2022-07-01T13:33:15;17.90;99.90
21772;DHT22;11047;47.904;8.110;2022-07-01T13:35:41;18.10;99.90
21772;DHT22;11047;47.904;8.110;2022-07-01T13:38:08;18.50;99.90
21772;DHT22;11047;47.904;8.110;2022-07-01T13:40:37;18.70;99.90
21772;DHT22;11047;47.904;8.110;2022-07-01T13:43:04;18.60;99.90
21772;DHT22;11047;47.904;8.110;2022-07-01T13:45:31;18.80;99.90
21772;DHT22;11047;47.904;8.110;2022-07-01T13:47:57;18.90;99.90
21772;DHT22;11047;47.904;8.110;2022-07-01T13:50:24;19.20;99.90
21772;DHT22;11047;47.904;8.110;2022-07-01T13:52:51;19.30;99.90
21772;DHT22;11047;47.904;8.110;2022-07-01T13:55:18;19.40;99.90
21772;DHT22;11047;47.904;8.110;2022-07-01T13:57:47;19.50;99.90
21772;DHT22;11047;47.904;8.110;2022-07-01T14:00:15;19.10;99.90
21772;DHT22;11047;47.904;8.110;2022-07-01T14:02:42;19.30;99.90
21772;DHT22;11047;47.904;8.110;2022-07-01T14:05:24;19.40;99.90
21772;DHT22;11047;47.904;8.110;2022-07-01T14:07:51;19.50;99.90
21772;DHT22;11047;47.904;8.110;2022-07-01T14:10:18;19.30;99.90
21772;DHT22;11047;47.904;8.110;2022-07-01T14:12:46;19.40;99.90
21772;DHT22;11047;47.904;8.110;2022-07-01T14:15:13;19.60;99.90
21772;DHT22;11047;47.904;8.110;2022-07-01T14:17:40;19.70;99.90
21772;DHT22;11047;47.904;8.110;2022-07-01T14:20:09;19.80;99.90
21772;DHT22;11047;47.904;8.110;2022-07-01T14:22:36;19.60;99.90
21772;DHT22;11047;47.904;8.110;2022-07-01T14:25:03;19.50;99.90
21772;DHT22;11047;47.904;8.110;2022-07-01T14:27:30;19.50;99.90
21772;DHT22;11047;47.904;8.110;2022-07-01T14:29:59;19.30;99.90
21772;DHT22;11047;47.904;8.110;2022-07-01T14:32:26;19.10;99.90
21772;DHT22;11047;47.904;8.110;2022-07-01T14:34:54;19.00;99.90
21772;DHT22;11047;47.904;8.110;2022-07-01T14:37:21;18.60;99.90
21772;DHT22;11047;47.904;8.110;2022-07-01T14:39:48;18.50;99.90
21772;DHT22;11047;47.904;8.110;2022-07-01T14:42:18;18.50;99.90
21772;DHT22;11047;47.904;8.110;2022-07-01T14:44:45;18.50;99.90
21772;DHT22;11047;47.904;8.110;2022-07-01T14:47:14;18.50;99.90
21772;DHT22;11047;47.904;8.110;2022-07-01T14:49:40;18.40;99.90
21772;DHT22;11047;47.904;8.110;2022-07-01T14:52:10;18.00;99.90
21772;DHT22;11047;47.904;8.110;2022-07-01T14:54:37;18.00;99.90
21772;DHT22;11047;47.904;8.110;2022-07-01T14:57:05;18.20;99.90
21772;DHT22;11047;47.904;8.110;2022-07-01T14:59:32;18.30;99.90
21772;DHT22;11047;47.904;8.110;2022-07-01T15:02:00;18.60;99.90
21772;DHT22;11047;47.904;8.110;2022-07-01T15:04:30;19.00;99.90
21772;DHT22;11047;47.904;8.110;2022-07-01T15:06:58;19.20;99.90
21772;DHT22;11047;47.904;8.110;2022-07-01T15:09:25;18.90;99.90
21772;DHT22;11047;47.904;8.110;2022-07-01T15:11:53;18.90;99.90
21772;DHT22;11047;47.904;8.110;2022-07-01T15:14:20;18.60;99.90
21772;DHT22;11047;47.904;8.110;2022-07-01T15:16:47;18.80;99.90
21772;DHT22;11047;47.904;8.110;2022-07-01T15:19:14;19.00;99.90
21772;DHT22;11047;47.904;8.110;2022-07-01T15:21:42;18.60;99.90
21772;DHT22;11047;47.904;8.110;2022-07-01T15:24:09;18.70;99.90
21772;DHT22;11047;47.904;8.110;2022-07-01T15:26:36;18.90;99.90
21772;DHT22;11047;47.904;8.110;2022-07-01T15:29:03;18.80;99.90
21772;DHT22;11047;47.904;8.110;2022-07-01T15:31:30;18.90;99.90
21772;DHT22;11047;47.904;8.110;2022-07-01T15:33:57;18.80;99.90
21772;DHT22;11047;47.904;8.110;2022-07-01T15:36:24;18.60;99.90